Aérodrome :
LOGIN :

S'inscrire | Disclaimer

   EN    FR    IT 

 










Légende :    VFR   VFR Marginal   IFR   IFR Intensif   IFR Très Intensif
Visi : 
Plafond : 
>= 8 km
>= 3000ft
5 à 8 km
1000 à 3000 ft
1500m à 5 km
500 à 1000 ft
800 à 1500m
200 à 500 ft
< 800m
< 200 ft
Symboles :   Orages  Brouillard  Fortes neiges  Fortes précipitations  Vent > 20 kt
SIGMETs :   Divers  Orages  Givrage  Turbulence  Onde Orograph.  Cendres Volcan.






- Altitude de l'aérodrome : 194 ft


EBCV - Chièvres

DERNIER METAR :
  • 041155Z AUTO 20014KT 9999 OVC014/// 19/15 Q1015 GRN

METARs EXPIRÉS :
  • 041133Z AUTO 20014KT 9999 OVC014/// 18/15 Q1016 GRN
  • 041055Z AUTO 22011KT 9999 -DZ OVC017/// 18/15 Q1016 WHT
  • 041025Z AUTO 21013KT 9999 -DZ OVC017/// 17/15 Q1016 WHT
  • 041018Z AUTO 21012KT 4300 OVC017/// 17/14 Q1016 GRN
  • 040955Z AUTO 22013KT 9000 DZ OVC018/// 16/14 Q1016 WHT
  • 040925Z AUTO 21013KT 9999 OVC018/// 17/13 Q1016 WHT

TAF TAF EBCV
Valide du 04 à 10h jusqu'au 04 à 19h UTC


040841Z 0410/0419 22012KT 9999 BKN040
BECMG 0407/0409 22013G25KT BKN022
TEMPO 0408/0415 22015G30KT 7000 -RA OVC020
PROB30
TEMPO 0409/0413 22018G35KT 4500 -RADZ SCT010 OVC019
TEMPO 0414/0416 BKN030 BY EBWM



MET'MAP, la Météo Aéronautique d'un coup d'oeil ! - Copyright ORBIFLY Décembre 2007 - Disclaimer

ORBIFLY MET'MAP TEAM :

Programmation & Développement : Alexandra Zaïnal
Sur une idée originale de : Baudouin d'Aumeries
Assistance à la programmation : Marc-Olivier Méhu
Soutien technique & logistique : Manuel Goepfert

Contact : metmap@orbifly.com




SOURCES & CREDITS :

   NOAA